Hillandale, Maryland
Current Conditions -  °F | °C
As of 12:50 PM on Thursday 23 Oct 2014 (Local Time) from KCGS Reporting Station
Overcast Overcast  
Wind Chill: 63°   Ceiling: 4200
Heat Index: 63°   Visibility: 10mi
Dew Point: 45°   Wind: 17mph
Humidity: 52%   Direction: 330°NNW
Pressure: 29.87"   Gusts: 25mph
Location:  39.0169°N, 76.9848°W
Report Text: KCGS 231650Z AUTO 33015G22KT 290V350 10SM BKN042 OVC080 17/07 A2987 RMK AO1
Loading
Personal Weather Stations






























Interactive Weather Map
Tropical Storm Tracking
New forecast layout! Learn more

10-Day Weather Forecast

Advertisements
Track Severe Weather on mobile